createdAt,value
2023-09-26T00:00:33.302Z,5.80
2023-09-26T00:01:35.248Z,5.70
2023-09-26T00:02:37.284Z,6.38
2023-09-26T00:03:41.355Z,8.57
2023-09-26T00:04:43.191Z,5.45
2023-09-26T00:05:45.045Z,7.85
2023-09-26T00:06:46.857Z,6.15
2023-09-26T00:07:52.785Z,5.72
2023-09-26T00:08:55.318Z,8.75
2023-09-26T00:09:57.357Z,10.23
2023-09-26T00:10:59.222Z,7.38
2023-09-26T00:12:01.034Z,5.77
2023-09-26T00:13:02.890Z,7.07
2023-09-26T00:14:06.165Z,9.95
2023-09-26T00:15:08.567Z,15.98
2023-09-26T00:16:11.171Z,7.45
2023-09-26T00:17:13.106Z,7.68
2023-09-26T00:18:15.479Z,6.53
2023-09-26T00:19:17.240Z,11.13
2023-09-26T00:20:25.283Z,9.68
2023-09-26T00:21:27.279Z,6.57
2023-09-26T00:22:29.051Z,6.60
2023-09-26T00:23:30.968Z,6.43
2023-09-26T00:24:32.698Z,7.65
2023-09-26T00:25:34.541Z,6.68
2023-09-26T00:26:36.469Z,6.88
2023-09-26T00:27:38.241Z,5.18
2023-09-26T00:28:40.043Z,7.93
2023-09-26T00:29:41.869Z,9.13
2023-09-26T00:30:43.750Z,8.55
2023-09-26T00:31:45.639Z,6.72
2023-09-26T00:32:47.476Z,7.13
2023-09-26T00:33:49.558Z,9.02
2023-09-26T00:34:51.471Z,7.80
2023-09-26T00:35:53.289Z,5.47
2023-09-26T00:36:56.397Z,8.30
2023-09-26T00:37:59.099Z,6.18
2023-09-26T00:39:01.201Z,7.00
2023-09-26T00:40:03.680Z,7.35
2023-09-26T00:41:07.631Z,5.90
2023-09-26T00:42:09.651Z,8.48
2023-09-26T00:43:21.021Z,6.23
2023-09-26T00:44:22.946Z,9.38
2023-09-26T00:45:24.765Z,5.88
2023-09-26T00:46:26.654Z,7.75
2023-09-26T00:47:28.579Z,7.75
2023-09-26T00:48:30.928Z,6.88
2023-09-26T00:49:33.109Z,8.27
2023-09-26T00:50:34.955Z,8.05
2023-09-26T00:51:38.255Z,5.22
2023-09-26T00:52:48.469Z,10.43
2023-09-26T00:53:50.604Z,12.00
2023-09-26T00:54:52.748Z,7.47
2023-09-26T00:55:57.495Z,8.07
2023-09-26T00:56:59.622Z,8.25
2023-09-26T00:58:02.388Z,9.00
2023-09-26T00:59:05.121Z,5.82
2023-09-26T01:00:13.795Z,6.63
2023-09-26T01:01:16.686Z,7.93
2023-09-26T01:02:18.553Z,5.35
2023-09-26T01:03:22.189Z,6.90
2023-09-26T01:04:24.486Z,7.43
2023-09-26T01:05:27.263Z,8.13
2023-09-26T01:06:29.039Z,8.13
2023-09-26T01:07:32.297Z,7.07
2023-09-26T01:08:34.833Z,6.75
2023-09-26T01:09:36.731Z,5.78
2023-09-26T01:10:38.897Z,6.38
2023-09-26T01:11:40.821Z,7.57
2023-09-26T01:12:43.749Z,8.20
2023-09-26T01:13:46.475Z,6.63
2023-09-26T01:14:48.261Z,6.37
2023-09-26T01:15:50.189Z,6.47
2023-09-26T01:16:57.899Z,6.53
2023-09-26T01:17:59.992Z,5.75
2023-09-26T01:19:01.945Z,7.97
2023-09-26T01:20:13.916Z,7.13
2023-09-26T01:21:15.948Z,5.60
2023-09-26T01:22:19.327Z,7.93
2023-09-26T01:23:26.299Z,8.35
2023-09-26T01:24:28.185Z,9.07
2023-09-26T01:25:30.911Z,5.77
2023-09-26T01:26:37.686Z,6.93
2023-09-26T01:27:39.457Z,9.32
2023-09-26T01:28:41.593Z,15.55
2023-09-26T01:29:44.173Z,7.38
2023-09-26T01:30:47.690Z,9.20
2023-09-26T01:31:50.202Z,7.15
2023-09-26T01:32:52.502Z,7.90
2023-09-26T01:33:54.389Z,6.95
2023-09-26T01:34:56.261Z,9.65
2023-09-26T01:35:58.081Z,6.77
2023-09-26T01:36:59.931Z,6.32
2023-09-26T01:38:02.069Z,5.55
2023-09-26T01:39:04.040Z,6.47
2023-09-26T01:40:16.773Z,8.02
2023-09-26T01:41:18.783Z,8.75
2023-09-26T01:42:20.819Z,6.13
2023-09-26T01:43:22.730Z,8.77
2023-09-26T01:44:24.500Z,10.70
2023-09-26T01:45:26.289Z,8.02
2023-09-26T01:46:28.402Z,10.07
2023-09-26T01:47:42.395Z,9.60
2023-09-26T01:48:44.237Z,5.15
2023-09-26T01:49:46.139Z,7.45
2023-09-26T01:50:47.970Z,7.28
2023-09-26T01:51:50.433Z,8.07
2023-09-26T01:52:52.368Z,8.10
2023-09-26T01:53:54.303Z,7.00
2023-09-26T01:54:56.497Z,11.57
2023-09-26T01:56:01.349Z,8.23
2023-09-26T01:57:03.224Z,7.80
2023-09-26T01:58:05.246Z,8.25
2023-09-26T01:59:07.083Z,8.13
2023-09-26T02:00:12.896Z,6.72
2023-09-26T02:01:15.094Z,8.48
2023-09-26T02:02:16.960Z,7.82
2023-09-26T02:03:18.845Z,8.52
2023-09-26T02:04:20.696Z,6.82
2023-09-26T02:05:22.867Z,8.63
2023-09-26T02:06:24.812Z,10.88
2023-09-26T02:07:26.666Z,9.90
2023-09-26T02:08:28.505Z,10.85
2023-09-26T02:09:30.685Z,8.63
2023-09-26T02:10:33.053Z,7.63
2023-09-26T02:11:34.889Z,6.53
2023-09-26T02:12:38.623Z,8.40
2023-09-26T02:13:40.559Z,7.20
2023-09-26T02:14:42.502Z,9.95
2023-09-26T02:15:44.342Z,8.73
2023-09-26T02:16:46.257Z,14.30
2023-09-26T02:17:48.481Z,9.23
2023-09-26T02:18:50.320Z,9.00
2023-09-26T02:19:52.281Z,10.48
2023-09-26T02:20:54.665Z,11.00
2023-09-26T02:21:56.440Z,7.15
2023-09-26T02:22:58.978Z,7.18
2023-09-26T02:24:00.764Z,10.02
2023-09-26T02:25:02.863Z,7.82
2023-09-26T02:26:04.719Z,8.63
2023-09-26T02:27:06.577Z,10.13
2023-09-26T02:28:08.476Z,10.40
2023-09-26T02:29:10.287Z,14.45
2023-09-26T02:30:17.113Z,10.55
2023-09-26T02:31:19.150Z,10.40
2023-09-26T02:32:21.025Z,11.32
2023-09-26T02:33:22.922Z,12.07
2023-09-26T02:34:24.833Z,10.32
2023-09-26T02:35:26.919Z,10.63
2023-09-26T02:36:28.738Z,14.35
2023-09-26T02:37:30.688Z,11.35
2023-09-26T02:38:32.459Z,12.93
2023-09-26T02:39:34.275Z,9.80
2023-09-26T02:40:36.063Z,11.27
2023-09-26T02:41:37.895Z,9.52
2023-09-26T02:42:41.985Z,11.73
2023-09-26T02:43:43.870Z,10.95
2023-09-26T02:44:45.820Z,11.27
2023-09-26T02:45:47.654Z,8.75
2023-09-26T02:46:50.112Z,10.27
2023-09-26T02:47:51.922Z,10.15
2023-09-26T02:48:53.754Z,10.63
2023-09-26T02:49:55.866Z,10.80
2023-09-26T02:51:06.930Z,11.10
2023-09-26T02:52:09.565Z,12.43
2023-09-26T02:53:11.474Z,12.25
2023-09-26T02:54:13.326Z,14.07
2023-09-26T02:55:15.233Z,11.73
2023-09-26T02:56:17.065Z,12.98
2023-09-26T02:57:21.659Z,8.43
2023-09-26T02:58:23.491Z,12.68
2023-09-26T02:59:25.442Z,11.80
2023-09-26T03:00:27.223Z,19.08
2023-09-26T03:01:29.304Z,15.35
2023-09-26T03:02:31.213Z,11.10
2023-09-26T03:03:33.084Z,11.90
2023-09-26T03:04:34.965Z,12.80
2023-09-26T03:05:36.892Z,11.43
2023-09-26T03:06:38.870Z,9.95
2023-09-26T03:07:40.988Z,12.60
2023-09-26T03:08:42.827Z,10.90
2023-09-26T03:09:45.076Z,15.67
2023-09-26T03:10:46.918Z,11.57
2023-09-26T03:11:48.740Z,14.50
2023-09-26T03:12:50.694Z,12.93
2023-09-26T03:13:52.754Z,13.82
2023-09-26T03:14:57.097Z,13.32
2023-09-26T03:15:58.984Z,13.63
2023-09-26T03:17:01.129Z,16.88
2023-09-26T03:18:03.175Z,12.63
2023-09-26T03:19:07.106Z,16.73
2023-09-26T03:20:10.260Z,13.10
2023-09-26T03:21:15.073Z,11.73
2023-09-26T03:22:16.969Z,15.35
2023-09-26T03:23:19.180Z,12.75
2023-09-26T03:24:21.130Z,12.52
2023-09-26T03:25:22.984Z,13.20
2023-09-26T03:26:24.876Z,16.15
2023-09-26T03:27:26.675Z,14.55
2023-09-26T03:28:28.480Z,17.17
2023-09-26T03:29:30.333Z,13.18
2023-09-26T03:30:32.222Z,9.37
2023-09-26T03:31:35.458Z,12.10
2023-09-26T03:32:37.511Z,13.18
2023-09-26T03:33:39.622Z,11.57
2023-09-26T03:34:41.877Z,13.73
2023-09-26T03:35:43.657Z,12.15
2023-09-26T03:36:45.796Z,12.98
2023-09-26T03:37:47.600Z,15.13
2023-09-26T03:38:50.638Z,13.27
2023-09-26T03:39:52.702Z,11.73
2023-09-26T03:41:02.016Z,14.27
2023-09-26T03:42:03.873Z,10.73
2023-09-26T03:43:05.723Z,10.35
2023-09-26T03:44:08.071Z,13.15
2023-09-26T03:45:10.393Z,15.63
2023-09-26T03:46:12.266Z,11.40
2023-09-26T03:47:14.856Z,12.07
2023-09-26T03:48:16.772Z,10.35
2023-09-26T03:49:18.604Z,11.80
2023-09-26T03:50:20.447Z,13.60
2023-09-26T03:51:22.419Z,12.40
2023-09-26T03:52:24.357Z,12.57
2023-09-26T03:53:26.252Z,17.45
2023-09-26T03:54:29.502Z,15.27
2023-09-26T03:55:31.381Z,15.75
2023-09-26T03:56:33.245Z,13.70
2023-09-26T03:57:35.821Z,13.23
2023-09-26T03:58:38.259Z,14.98
2023-09-26T03:59:40.055Z,13.68
2023-09-26T04:00:41.923Z,11.63
2023-09-26T04:01:44.117Z,13.03
2023-09-26T04:02:46.414Z,12.88
2023-09-26T04:03:50.362Z,13.32
2023-09-26T04:04:52.555Z,12.48
2023-09-26T04:05:57.990Z,14.85
2023-09-26T04:07:00.111Z,17.85
2023-09-26T04:08:01.897Z,10.90
2023-09-26T04:09:03.850Z,14.63
2023-09-26T04:10:06.981Z,15.38
2023-09-26T04:11:18.540Z,13.63
2023-09-26T04:12:20.312Z,12.40
2023-09-26T04:13:22.233Z,13.30
2023-09-26T04:14:24.329Z,12.73
2023-09-26T04:15:26.082Z,15.40
2023-09-26T04:16:28.678Z,15.05
2023-09-26T04:17:30.664Z,15.93
2023-09-26T04:18:32.893Z,15.25
2023-09-26T04:19:34.849Z,12.90
2023-09-26T04:20:38.497Z,16.20
2023-09-26T04:21:40.513Z,12.25
2023-09-26T04:22:43.659Z,11.93
2023-09-26T04:23:45.492Z,15.55
2023-09-26T04:24:47.280Z,16.15
2023-09-26T04:25:49.934Z,19.23
2023-09-26T04:26:51.733Z,13.77
2023-09-26T04:27:53.651Z,12.55
2023-09-26T04:28:55.490Z,15.18
2023-09-26T04:29:57.724Z,12.63
2023-09-26T04:30:59.648Z,12.77
2023-09-26T04:32:02.126Z,17.48
2023-09-26T04:33:04.411Z,14.80
2023-09-26T04:34:06.313Z,14.65
2023-09-26T04:35:08.476Z,14.52
2023-09-26T04:36:10.395Z,12.98
2023-09-26T04:37:12.254Z,13.15
2023-09-26T04:38:14.211Z,12.85
2023-09-26T04:39:16.141Z,17.08
2023-09-26T04:40:19.422Z,15.52
2023-09-26T04:41:21.218Z,12.88
2023-09-26T04:42:23.004Z,14.00
2023-09-26T04:43:25.013Z,15.37
2023-09-26T04:44:26.821Z,16.17
2023-09-26T04:45:32.425Z,16.20
2023-09-26T04:46:34.419Z,17.65
2023-09-26T04:47:39.427Z,17.08
2023-09-26T04:48:42.234Z,17.17
2023-09-26T04:49:44.090Z,11.35
2023-09-26T04:50:45.932Z,15.27
2023-09-26T04:51:47.778Z,12.52
2023-09-26T04:52:49.557Z,17.27
2023-09-26T04:53:51.550Z,16.67
2023-09-26T04:54:53.445Z,12.63
2023-09-26T04:55:55.464Z,13.93
2023-09-26T04:56:57.315Z,12.73
2023-09-26T04:57:59.155Z,13.85
2023-09-26T04:59:02.256Z,18.33
2023-09-26T05:00:07.664Z,11.80
2023-09-26T05:01:14.583Z,16.80
2023-09-26T05:02:16.678Z,14.18
2023-09-26T05:03:18.517Z,17.25
2023-09-26T05:04:21.492Z,14.67
2023-09-26T05:05:23.436Z,19.77
2023-09-26T05:06:25.308Z,14.65
2023-09-26T05:07:27.139Z,13.75
2023-09-26T05:08:29.108Z,14.25
2023-09-26T05:09:30.923Z,13.93
2023-09-26T05:10:32.829Z,15.55
2023-09-26T05:11:34.760Z,13.85
2023-09-26T05:12:41.749Z,15.43
2023-09-26T05:13:44.841Z,18.08
2023-09-26T05:14:46.858Z,15.07
2023-09-26T05:15:48.794Z,16.88
2023-09-26T05:16:51.176Z,13.50
2023-09-26T05:17:53.654Z,14.63
2023-09-26T05:18:55.565Z,13.77
2023-09-26T05:19:57.471Z,18.27
2023-09-26T05:21:00.239Z,16.10
2023-09-26T05:22:02.448Z,16.83
2023-09-26T05:23:05.068Z,14.15
2023-09-26T05:24:07.245Z,14.90
2023-09-26T05:25:09.667Z,14.57
2023-09-26T05:26:13.178Z,19.80
2023-09-26T05:27:14.979Z,21.73
2023-09-26T05:28:16.858Z,11.30
2023-09-26T05:29:18.757Z,13.35
2023-09-26T05:30:20.697Z,14.52
2023-09-26T05:31:22.576Z,12.98
2023-09-26T05:32:24.473Z,17.30
2023-09-26T05:33:26.286Z,15.10
2023-09-26T05:34:28.332Z,15.18
2023-09-26T05:35:30.152Z,12.50
2023-09-26T05:36:34.218Z,15.32
2023-09-26T05:37:37.379Z,15.82
2023-09-26T05:38:39.233Z,18.30
2023-09-26T05:39:41.076Z,13.68
2023-09-26T05:40:42.865Z,15.65
2023-09-26T05:41:44.710Z,11.95
2023-09-26T05:42:46.513Z,15.57
2023-09-26T05:43:48.401Z,14.60
2023-09-26T05:44:50.283Z,12.95
2023-09-26T05:45:55.143Z,16.60
2023-09-26T05:46:57.315Z,16.17
2023-09-26T05:47:59.337Z,12.35
2023-09-26T05:49:01.296Z,13.63
2023-09-26T05:50:04.790Z,14.95
2023-09-26T05:51:06.636Z,14.73
2023-09-26T05:52:08.632Z,13.57
2023-09-26T05:53:10.508Z,15.70
2023-09-26T05:54:29.485Z,16.08
2023-09-26T05:55:33.509Z,12.95
2023-09-26T05:56:35.637Z,18.40
2023-09-26T05:57:37.489Z,15.18
2023-09-26T05:58:39.456Z,17.33
2023-09-26T05:59:41.475Z,15.20
2023-09-26T06:00:43.958Z,13.13
2023-09-26T06:01:46.097Z,11.68
2023-09-26T06:02:48.174Z,11.20
2023-09-26T06:03:50.309Z,12.38
2023-09-26T06:04:52.554Z,15.38
2023-09-26T06:05:54.449Z,16.23
2023-09-26T06:06:56.374Z,19.87
2023-09-26T06:07:58.267Z,15.13
2023-09-26T06:09:00.743Z,13.48
2023-09-26T06:10:10.113Z,14.88
2023-09-26T06:11:13.241Z,13.98
2023-09-26T06:12:15.079Z,17.60
2023-09-26T06:13:16.941Z,15.73
2023-09-26T06:14:18.805Z,13.20
2023-09-26T06:15:20.805Z,11.63
2023-09-26T06:16:23.283Z,30.63
2023-09-26T06:17:25.353Z,28.53
2023-09-26T06:18:28.567Z,50.63
2023-09-26T06:19:30.429Z,62.60
2023-09-26T06:20:33.190Z,102.95
2023-09-26T06:21:35.141Z,66.97
2023-09-26T06:22:37.255Z,61.13
2023-09-26T06:23:39.552Z,71.80
2023-09-26T06:24:41.349Z,58.85
2023-09-26T06:25:55.604Z,29.95
2023-09-26T06:26:58.222Z,23.83
2023-09-26T06:28:00.067Z,21.87
2023-09-26T06:29:02.030Z,17.60
2023-09-26T06:30:05.693Z,17.92
2023-09-26T06:31:09.269Z,18.02
2023-09-26T06:32:11.718Z,23.33
2023-09-26T06:33:13.698Z,16.45
2023-09-26T06:34:15.680Z,15.15
2023-09-26T06:35:17.582Z,15.98
2023-09-26T06:36:20.226Z,14.57
2023-09-26T06:37:24.164Z,14.80
2023-09-26T06:38:26.068Z,14.90
2023-09-26T06:39:27.896Z,11.65
2023-09-26T06:40:29.663Z,13.95
2023-09-26T06:41:31.417Z,10.27
2023-09-26T06:42:34.052Z,13.48
2023-09-26T06:43:37.372Z,13.15
2023-09-26T06:44:39.624Z,10.88
2023-09-26T06:45:41.525Z,12.25
2023-09-26T06:46:43.490Z,11.65
2023-09-26T06:47:45.464Z,12.50
2023-09-26T06:48:47.400Z,11.20
2023-09-26T06:49:50.449Z,13.48
2023-09-26T06:50:53.313Z,15.65
2023-09-26T06:51:55.194Z,17.75
2023-09-26T06:52:57.048Z,15.25
2023-09-26T06:53:58.857Z,13.50
2023-09-26T06:55:02.108Z,12.88
2023-09-26T06:56:06.638Z,15.27
2023-09-26T06:57:10.873Z,18.75
2023-09-26T06:58:13.329Z,12.38
2023-09-26T06:59:15.291Z,15.40
2023-09-26T07:00:18.158Z,18.15
2023-09-26T07:01:20.334Z,11.70
2023-09-26T07:02:22.333Z,13.95
2023-09-26T07:03:24.490Z,17.40
2023-09-26T07:04:26.577Z,11.55
2023-09-26T07:05:29.902Z,10.73
2023-09-26T07:06:32.478Z,14.73
2023-09-26T07:07:35.339Z,12.07
2023-09-26T07:08:42.271Z,16.40
2023-09-26T07:09:45.121Z,13.37
2023-09-26T07:10:47.290Z,15.02
2023-09-26T07:11:49.165Z,16.58
2023-09-26T07:12:52.622Z,16.27
2023-09-26T07:13:54.632Z,15.68
2023-09-26T07:14:57.478Z,13.18
2023-09-26T07:16:01.158Z,10.43
2023-09-26T07:17:03.552Z,12.57
2023-09-26T07:18:07.860Z,12.43
2023-09-26T07:19:09.856Z,14.70
2023-09-26T07:20:15.149Z,19.30
2023-09-26T07:21:16.988Z,22.08
2023-09-26T07:22:19.289Z,11.80
2023-09-26T07:23:21.190Z,14.45
2023-09-26T07:24:24.536Z,12.82
2023-09-26T07:25:33.463Z,17.15
2023-09-26T07:26:35.962Z,11.68
2023-09-26T07:27:38.128Z,14.52
2023-09-26T07:28:43.650Z,11.82
2023-09-26T07:29:47.311Z,13.73
2023-09-26T07:30:49.232Z,11.17
2023-09-26T07:31:53.210Z,12.95
2023-09-26T07:32:55.727Z,13.77
2023-09-26T07:33:57.650Z,16.40
2023-09-26T07:34:59.535Z,14.00
2023-09-26T07:36:01.428Z,13.07
2023-09-26T07:37:03.263Z,13.05
2023-09-26T07:38:05.177Z,11.88
2023-09-26T07:39:07.409Z,12.40
2023-09-26T07:40:10.535Z,13.10
2023-09-26T07:41:12.666Z,16.23
2023-09-26T07:42:14.453Z,15.10
2023-09-26T07:43:16.350Z,14.77
2023-09-26T07:44:18.232Z,12.25
2023-09-26T07:45:20.107Z,12.85
2023-09-26T07:46:22.129Z,14.98
2023-09-26T07:47:24.831Z,20.13
2023-09-26T07:48:26.851Z,11.65
2023-09-26T07:49:28.631Z,10.82
2023-09-26T07:50:30.481Z,13.15
2023-09-26T07:51:33.046Z,14.57
2023-09-26T07:52:34.830Z,15.57
2023-09-26T07:53:37.649Z,18.80
2023-09-26T07:54:39.459Z,16.83
2023-09-26T07:55:41.405Z,18.08
2023-09-26T07:56:43.209Z,11.43
2023-09-26T07:57:45.042Z,13.02
2023-09-26T07:58:46.804Z,13.05
2023-09-26T07:59:48.879Z,10.75
2023-09-26T08:00:51.048Z,12.82
2023-09-26T08:01:52.887Z,9.53
2023-09-26T08:02:54.977Z,13.20
2023-09-26T08:03:56.920Z,12.25
2023-09-26T08:04:58.864Z,14.43
2023-09-26T08:06:01.952Z,10.38
2023-09-26T08:07:04.109Z,12.98
2023-09-26T08:08:06.365Z,13.65
2023-09-26T08:09:08.213Z,11.85
2023-09-26T08:10:10.335Z,13.25
2023-09-26T08:11:12.763Z,14.15
2023-09-26T08:12:14.609Z,11.60
2023-09-26T08:13:16.611Z,16.45
2023-09-26T08:14:18.501Z,12.35
2023-09-26T08:15:20.413Z,13.40
2023-09-26T08:16:23.956Z,14.00
2023-09-26T08:17:25.919Z,14.00
2023-09-26T08:18:27.786Z,10.00
2023-09-26T08:19:29.621Z,10.15
2023-09-26T08:20:31.610Z,10.10
2023-09-26T08:21:33.539Z,16.52
2023-09-26T08:22:35.463Z,10.13
2023-09-26T08:23:37.413Z,10.85
2023-09-26T08:24:40.798Z,10.65
2023-09-26T08:25:42.766Z,15.05
2023-09-26T08:26:44.574Z,13.98
2023-09-26T08:27:46.491Z,8.90
2023-09-26T08:28:48.329Z,12.82
2023-09-26T08:29:50.186Z,9.60
2023-09-26T08:30:52.061Z,10.50
2023-09-26T08:31:53.986Z,12.52
2023-09-26T08:32:55.868Z,14.93
2023-09-26T08:33:58.217Z,11.63
2023-09-26T08:35:00.092Z,11.90
2023-09-26T08:36:02.891Z,10.73
2023-09-26T08:37:04.784Z,13.98
2023-09-26T08:38:06.586Z,8.85
2023-09-26T08:39:09.795Z,9.02
2023-09-26T08:40:14.588Z,10.18
2023-09-26T08:41:21.399Z,10.27
2023-09-26T08:42:28.905Z,13.02
2023-09-26T08:43:30.879Z,7.87
2023-09-26T08:44:32.737Z,8.43
2023-09-26T08:45:35.723Z,11.90
2023-09-26T08:46:39.064Z,11.77
2023-09-26T08:47:45.292Z,12.30
2023-09-26T08:48:48.660Z,14.00
2023-09-26T08:49:54.116Z,12.68
2023-09-26T08:50:56.003Z,10.98
2023-09-26T08:51:58.154Z,11.77
2023-09-26T08:53:00.689Z,16.13
2023-09-26T08:54:02.517Z,12.87
2023-09-26T08:55:06.312Z,9.82
2023-09-26T08:56:08.365Z,13.05
2023-09-26T08:57:11.085Z,12.65
2023-09-26T08:58:16.123Z,11.70
2023-09-26T08:59:21.121Z,9.07
2023-09-26T09:00:23.612Z,12.90
2023-09-26T09:01:26.263Z,14.90
2023-09-26T09:02:29.037Z,12.25
2023-09-26T09:03:31.046Z,12.32
2023-09-26T09:04:33.724Z,13.07
2023-09-26T09:05:35.675Z,15.10
2023-09-26T09:06:37.510Z,16.13
2023-09-26T09:07:42.126Z,14.23
2023-09-26T09:08:43.982Z,10.25
2023-09-26T09:10:06.524Z,11.48
2023-09-26T09:11:08.731Z,13.10
2023-09-26T09:12:25.405Z,13.50
2023-09-26T09:13:34.032Z,10.20
2023-09-26T09:14:37.996Z,11.65
2023-09-26T09:15:40.199Z,10.43
2023-09-26T09:16:55.162Z,11.30
2023-09-26T09:17:57.584Z,14.30
2023-09-26T09:19:00.404Z,9.48
2023-09-26T09:20:02.311Z,9.82
2023-09-26T09:21:32.875Z,9.25
2023-09-26T09:22:34.999Z,7.72
2023-09-26T09:23:50.588Z,9.40
2023-09-26T09:24:58.260Z,7.93
2023-09-26T09:26:12.586Z,12.25
2023-09-26T09:27:14.618Z,9.20
2023-09-26T09:28:21.327Z,12.05
2023-09-26T09:29:24.515Z,9.40
2023-09-26T09:30:27.840Z,11.70
2023-09-26T09:31:29.866Z,10.60
2023-09-26T09:32:32.119Z,9.63
2023-09-26T09:33:34.444Z,11.50
2023-09-26T09:34:36.543Z,10.88
2023-09-26T09:35:38.774Z,9.30
2023-09-26T09:36:41.046Z,11.35
2023-09-26T09:37:48.175Z,8.57
2023-09-26T09:38:50.214Z,10.38
2023-09-26T09:39:52.585Z,9.73
2023-09-26T09:40:54.455Z,7.78
2023-09-26T09:42:02.231Z,12.32
2023-09-26T09:43:04.500Z,16.90
2023-09-26T09:44:06.860Z,8.70
2023-09-26T09:45:10.988Z,7.32
2023-09-26T09:46:16.757Z,8.88
2023-09-26T09:47:25.340Z,11.25
2023-09-26T09:48:29.335Z,11.17
2023-09-26T09:49:33.602Z,13.18
2023-09-26T09:50:40.728Z,8.02
2023-09-26T09:51:46.830Z,12.35
2023-09-26T09:52:52.291Z,11.48
2023-09-26T09:54:01.309Z,11.80
2023-09-26T09:55:10.347Z,10.85
2023-09-26T09:56:19.687Z,10.45
2023-09-26T09:57:24.327Z,10.60
2023-09-26T09:58:29.554Z,8.65
2023-09-26T09:59:37.090Z,12.23
2023-09-26T10:00:40.540Z,9.52
2023-09-26T10:01:46.816Z,10.38
2023-09-26T10:02:51.611Z,13.35
2023-09-26T10:03:54.401Z,10.52
2023-09-26T10:04:57.558Z,12.20
2023-09-26T10:05:59.548Z,10.00
2023-09-26T10:07:01.771Z,9.80
2023-09-26T10:08:06.432Z,11.77
2023-09-26T10:09:09.720Z,14.10
2023-09-26T10:10:13.905Z,10.50
2023-09-26T10:11:17.931Z,10.48
2023-09-26T10:12:20.502Z,7.93
2023-09-26T10:13:35.696Z,9.85
2023-09-26T10:14:38.701Z,10.75
2023-09-26T10:16:07.597Z,11.85
2023-09-26T10:17:09.795Z,6.70
2023-09-26T10:18:13.912Z,8.77
2023-09-26T10:19:16.439Z,8.40
2023-09-26T10:20:44.390Z,9.23
2023-09-26T10:21:42.105Z,11.70
2023-09-26T10:22:45.420Z,9.43
2023-09-26T10:24:06.221Z,8.25
2023-09-26T10:25:09.873Z,16.17
2023-09-26T10:26:12.065Z,8.68
2023-09-26T10:27:26.977Z,7.93
2023-09-26T10:28:30.594Z,7.68
2023-09-26T10:29:32.551Z,9.60
2023-09-26T10:30:47.489Z,11.00
2023-09-26T10:31:57.609Z,7.75
2023-09-26T10:33:00.541Z,9.00
2023-09-26T10:34:02.888Z,10.48
2023-09-26T10:36:41.207Z,7.57
2023-09-26T10:37:49.374Z,11.02
2023-09-26T10:39:01.809Z,8.68
2023-09-26T10:40:04.605Z,9.65
2023-09-26T10:41:07.576Z,9.57
2023-09-26T10:45:01.284Z,9.00
2023-09-26T10:46:03.208Z,10.93
2023-09-26T10:47:06.564Z,8.50
2023-09-26T10:48:17.075Z,16.15
2023-09-26T10:49:19.127Z,8.07
2023-09-26T10:50:23.581Z,7.38
2023-09-26T10:51:25.358Z,12.27
2023-09-26T10:52:27.937Z,9.15
2023-09-26T10:53:29.944Z,9.35
2023-09-26T10:54:34.059Z,8.40
2023-09-26T10:55:36.381Z,8.00
2023-09-26T10:56:46.130Z,7.82
2023-09-26T10:57:51.240Z,9.68
2023-09-26T10:58:55.162Z,7.80
2023-09-26T10:59:57.329Z,6.80
2023-09-26T11:00:59.673Z,9.55
2023-09-26T11:02:03.073Z,10.20
2023-09-26T11:04:32.880Z,9.63
2023-09-26T11:05:35.302Z,7.47
2023-09-26T11:06:39.477Z,8.23
2023-09-26T11:07:43.472Z,7.72
2023-09-26T11:08:45.869Z,6.70
2023-09-26T11:09:48.133Z,12.88
2023-09-26T11:10:50.444Z,11.50
2023-09-26T11:11:52.487Z,10.15
2023-09-26T11:12:54.410Z,7.22
2023-09-26T11:13:56.798Z,8.15
2023-09-26T11:15:00.649Z,10.55
2023-09-26T11:16:02.428Z,7.35
2023-09-26T11:17:05.942Z,12.70
2023-09-26T11:18:13.487Z,11.45
2023-09-26T11:19:15.476Z,8.77
2023-09-26T11:20:17.602Z,8.00
2023-09-26T11:21:27.605Z,10.65
2023-09-26T11:22:31.795Z,11.27
2023-09-26T11:23:41.421Z,8.82
2023-09-26T11:24:43.430Z,23.63
2023-09-26T11:25:54.557Z,14.23
2023-09-26T11:27:03.400Z,17.45
2023-09-26T11:28:07.300Z,17.37
2023-09-26T11:29:09.111Z,13.23
2023-09-26T11:30:15.286Z,10.57
2023-09-26T11:31:17.108Z,10.32
2023-09-26T11:32:19.918Z,7.07
2023-09-26T11:33:21.908Z,6.82
2023-09-26T11:34:25.435Z,8.77
2023-09-26T11:35:27.598Z,8.40
2023-09-26T11:36:29.501Z,6.40
2023-09-26T11:37:34.223Z,9.85
2023-09-26T11:38:47.621Z,8.30
2023-09-26T11:39:54.806Z,13.07
2023-09-26T11:40:56.748Z,6.35
2023-09-26T11:42:09.911Z,6.07
2023-09-26T11:43:12.016Z,7.32
2023-09-26T11:44:15.340Z,13.20
2023-09-26T11:45:27.568Z,12.10
2023-09-26T11:46:29.876Z,7.90
2023-09-26T11:47:31.878Z,10.60
2023-09-26T11:48:33.755Z,6.22
2023-09-26T11:49:36.502Z,8.17
2023-09-26T11:50:40.943Z,15.88
2023-09-26T11:51:43.258Z,20.20
2023-09-26T11:52:45.827Z,13.10
2023-09-26T11:53:47.996Z,7.63
2023-09-26T11:54:51.652Z,8.07
2023-09-26T11:55:54.451Z,10.15
2023-09-26T11:56:57.041Z,5.55
2023-09-26T11:58:00.001Z,12.15
2023-09-26T11:59:02.891Z,13.55
2023-09-26T12:00:13.012Z,10.30
2023-09-26T12:01:14.839Z,6.72
2023-09-26T12:02:16.798Z,6.80
2023-09-26T12:03:18.772Z,6.82
2023-09-26T12:04:23.064Z,8.20
2023-09-26T12:05:25.010Z,5.85
2023-09-26T12:06:26.925Z,8.60
2023-09-26T12:07:28.709Z,8.52
2023-09-26T12:08:30.651Z,12.32
2023-09-26T12:09:34.447Z,9.85
2023-09-26T12:10:37.273Z,8.97
2023-09-26T12:11:40.011Z,6.03
2023-09-26T12:12:42.049Z,11.50
2023-09-26T12:13:43.866Z,8.30
2023-09-26T12:14:47.742Z,8.77
2023-09-26T12:15:49.760Z,8.63
2023-09-26T12:16:52.781Z,7.28
2023-09-26T12:17:57.605Z,9.85
2023-09-26T12:19:00.025Z,9.07
2023-09-26T12:20:01.934Z,9.68
2023-09-26T12:21:05.264Z,8.00
2023-09-26T12:22:07.159Z,8.57
2023-09-26T12:23:11.283Z,11.00
2023-09-26T12:24:13.325Z,8.98
2023-09-26T12:25:15.247Z,8.25
2023-09-26T12:26:17.051Z,8.77
2023-09-26T12:27:18.843Z,8.50
2023-09-26T12:28:23.063Z,10.43
2023-09-26T12:29:25.123Z,9.50
2023-09-26T12:30:27.056Z,7.82
2023-09-26T12:31:28.890Z,10.03
2023-09-26T12:32:30.908Z,12.43
2023-09-26T12:33:32.799Z,10.20
2023-09-26T12:34:34.661Z,7.75
2023-09-26T12:35:36.552Z,7.03
2023-09-26T12:36:38.618Z,12.98
2023-09-26T12:37:43.008Z,8.45
2023-09-26T12:38:46.024Z,10.02
2023-09-26T12:39:49.187Z,8.45
2023-09-26T12:40:51.105Z,10.07
2023-09-26T12:41:53.157Z,8.80
2023-09-26T12:42:54.995Z,12.77
2023-09-26T12:43:59.318Z,8.93
2023-09-26T12:45:01.240Z,6.90
2023-09-26T12:46:03.155Z,7.75
2023-09-26T12:47:05.087Z,8.82
2023-09-26T12:48:07.298Z,9.88
2023-09-26T12:49:10.229Z,9.98
2023-09-26T12:50:12.847Z,12.32
2023-09-26T12:51:14.697Z,10.68
2023-09-26T12:52:16.575Z,7.27
2023-09-26T12:53:18.527Z,11.27
2023-09-26T12:54:23.109Z,16.38
2023-09-26T12:55:25.545Z,10.18
2023-09-26T12:56:27.407Z,7.75
2023-09-26T12:57:29.278Z,9.75
2023-09-26T12:58:31.452Z,11.85
2023-09-26T12:59:34.117Z,10.60
2023-09-26T13:00:36.243Z,11.65
2023-09-26T13:01:38.209Z,8.40
2023-09-26T13:02:41.410Z,8.00
2023-09-26T13:03:43.607Z,10.38
2023-09-26T13:04:45.522Z,11.60
2023-09-26T13:05:48.410Z,8.00
2023-09-26T13:06:50.538Z,9.98
2023-09-26T13:07:52.348Z,10.38
2023-09-26T13:08:54.146Z,8.10
2023-09-26T13:09:56.116Z,9.45
2023-09-26T13:10:58.372Z,8.65
2023-09-26T13:12:00.513Z,8.38
2023-09-26T13:13:02.832Z,14.67
2023-09-26T13:14:04.760Z,10.32
2023-09-26T13:15:09.461Z,13.85
2023-09-26T13:16:11.496Z,10.20
2023-09-26T13:17:14.305Z,9.68
2023-09-26T13:18:16.381Z,12.02
2023-09-26T13:19:18.598Z,12.35
2023-09-26T13:20:20.587Z,8.30
2023-09-26T13:21:22.500Z,12.60
2023-09-26T13:22:24.379Z,16.40
2023-09-26T13:23:26.145Z,7.60
2023-09-26T13:24:28.925Z,6.10
2023-09-26T13:25:30.789Z,8.77
2023-09-26T13:26:32.856Z,10.75
2023-09-26T13:27:34.990Z,9.77
2023-09-26T13:28:37.705Z,12.05
2023-09-26T13:30:41.904Z,11.07
2023-09-26T13:31:47.004Z,15.02
2023-09-26T13:32:49.009Z,8.75
2023-09-26T13:33:50.822Z,9.23
2023-09-26T13:34:52.664Z,11.20
2023-09-26T13:35:55.293Z,10.85
2023-09-26T13:36:57.235Z,10.93
2023-09-26T13:38:00.389Z,10.45
2023-09-26T13:39:04.014Z,8.77
2023-09-26T13:40:06.762Z,11.65
2023-09-26T13:41:08.727Z,12.65
2023-09-26T13:42:12.583Z,8.77
2023-09-26T13:43:14.416Z,10.35
2023-09-26T13:44:16.206Z,9.90
2023-09-26T13:45:18.556Z,12.48
2023-09-26T13:46:20.912Z,10.35
2023-09-26T13:47:22.844Z,7.50
2023-09-26T13:48:24.720Z,10.38
2023-09-26T13:49:28.268Z,9.55